createdAt,value
2019-05-11T00:01:18.475Z,3.70
2019-05-11T00:03:45.263Z,5.27
2019-05-11T00:06:11.764Z,2.90
2019-05-11T00:08:38.043Z,2.83
2019-05-11T00:11:04.663Z,5.33
2019-05-11T00:13:31.394Z,3.00
2019-05-11T00:15:58.043Z,3.60
2019-05-11T00:18:24.327Z,3.60
2019-05-11T00:20:50.606Z,4.20
2019-05-11T00:23:16.987Z,3.70
2019-05-11T00:25:43.243Z,3.13
2019-05-11T00:28:09.549Z,5.53
2019-05-11T00:30:36.130Z,2.73
2019-05-11T00:33:02.951Z,2.60
2019-05-11T00:35:29.231Z,3.83
2019-05-11T00:37:55.519Z,4.50
2019-05-11T00:40:21.782Z,4.03
2019-05-11T00:42:48.090Z,4.60
2019-05-11T00:45:16.879Z,4.07
2019-05-11T00:47:43.261Z,3.70
2019-05-11T00:50:10.343Z,4.13
2019-05-11T00:52:36.842Z,3.40
2019-05-11T00:55:05.139Z,2.53
2019-05-11T00:57:31.741Z,3.07
2019-05-11T00:59:58.103Z,3.43
2019-05-11T01:02:24.485Z,3.80
2019-05-11T01:04:50.787Z,3.60
2019-05-11T01:07:17.451Z,3.70
2019-05-11T01:09:43.743Z,4.43
2019-05-11T01:12:10.006Z,4.80
2019-05-11T01:14:36.402Z,3.00
2019-05-11T01:17:02.676Z,4.27
2019-05-11T01:19:29.446Z,3.13
2019-05-11T01:21:56.042Z,3.63
2019-05-11T01:24:22.534Z,3.00
2019-05-11T01:26:48.832Z,4.07
2019-05-11T01:29:15.194Z,3.83
2019-05-11T01:31:41.486Z,4.07
2019-05-11T01:34:07.784Z,4.27
2019-05-11T01:36:34.165Z,4.27
2019-05-11T01:39:00.555Z,2.40
2019-05-11T01:41:27.406Z,4.57
2019-05-11T01:43:54.047Z,3.70
2019-05-11T01:46:20.323Z,4.07
2019-05-11T01:48:46.616Z,3.17
2019-05-11T01:51:12.981Z,3.67
2019-05-11T01:53:39.368Z,3.10
2019-05-11T01:56:06.008Z,3.90
2019-05-11T01:58:32.671Z,3.77
2019-05-11T02:00:59.055Z,4.37
2019-05-11T02:03:25.458Z,3.10
2019-05-11T02:05:51.836Z,3.80
2019-05-11T02:08:18.208Z,4.03
2019-05-11T02:10:44.579Z,3.07
2019-05-11T02:13:11.019Z,4.33
2019-05-11T02:15:37.674Z,4.10
2019-05-11T02:18:04.315Z,3.53
2019-05-11T02:20:30.714Z,3.87
2019-05-11T02:22:57.086Z,4.63
2019-05-11T02:25:23.687Z,3.67
2019-05-11T02:27:49.946Z,4.73
2019-05-11T02:30:16.662Z,3.53
2019-05-11T02:32:43.541Z,4.17
2019-05-11T02:35:10.490Z,4.83
2019-05-11T02:37:36.761Z,3.27
2019-05-11T02:40:08.870Z,3.97
2019-05-11T02:42:35.231Z,4.30
2019-05-11T02:45:03.332Z,4.27
2019-05-11T02:47:29.703Z,3.70
2019-05-11T02:49:56.453Z,3.73
2019-05-11T02:52:25.229Z,3.83
2019-05-11T02:54:52.325Z,3.40
2019-05-11T02:57:18.864Z,4.27
2019-05-11T02:59:45.260Z,3.90
2019-05-11T03:02:12.642Z,3.17
2019-05-11T03:04:38.947Z,3.87
2019-05-11T03:07:05.249Z,3.87
2019-05-11T03:09:31.506Z,3.63
2019-05-11T03:11:57.856Z,3.30
2019-05-11T03:14:24.473Z,3.17
2019-05-11T03:16:52.762Z,3.57
2019-05-11T03:19:19.031Z,3.40
2019-05-11T03:21:45.416Z,3.80
2019-05-11T03:24:11.684Z,3.43
2019-05-11T03:26:38.400Z,4.00
2019-05-11T03:29:04.808Z,5.80
2019-05-11T03:31:31.183Z,4.33
2019-05-11T03:33:57.576Z,5.17
2019-05-11T03:36:24.326Z,4.57
2019-05-11T03:38:51.787Z,4.33
2019-05-11T03:41:18.155Z,4.40
2019-05-11T03:43:45.442Z,5.63
2019-05-11T03:46:11.717Z,4.03
2019-05-11T03:48:38.101Z,4.00
2019-05-11T03:51:04.478Z,4.10
2019-05-11T03:53:30.906Z,3.13
2019-05-11T03:55:57.276Z,3.80
2019-05-11T03:58:26.044Z,3.27
2019-05-11T04:00:52.242Z,3.63
2019-05-11T04:03:18.631Z,3.50
2019-05-11T04:05:45.014Z,3.33
2019-05-11T04:08:11.314Z,3.60
2019-05-11T04:10:37.704Z,4.03
2019-05-11T04:13:04.407Z,10.63
2019-05-11T04:15:31.149Z,11.33
2019-05-11T04:17:57.518Z,8.37
2019-05-11T04:20:23.919Z,5.53
2019-05-11T04:22:50.284Z,4.33
2019-05-11T04:25:16.692Z,4.23
2019-05-11T04:27:43.417Z,5.73
2019-05-11T04:30:10.112Z,4.73
2019-05-11T04:32:36.431Z,4.70
2019-05-11T04:35:04.324Z,5.13
2019-05-11T04:37:30.696Z,3.77
2019-05-11T04:39:57.091Z,3.90
2019-05-11T04:42:23.647Z,5.57
2019-05-11T04:44:52.463Z,3.73
2019-05-11T04:47:18.232Z,3.93
2019-05-11T04:49:44.895Z,4.60
2019-05-11T04:52:11.192Z,3.90
2019-05-11T04:54:37.575Z,4.10
2019-05-11T04:57:03.962Z,4.80
2019-05-11T04:59:30.244Z,5.60
2019-05-11T05:01:56.759Z,6.23
2019-05-11T05:04:23.127Z,5.10
2019-05-11T05:06:59.560Z,5.93
2019-05-11T05:09:18.809Z,4.97
2019-05-11T05:11:45.214Z,4.93
2019-05-11T05:14:11.800Z,3.53
2019-05-11T05:16:38.539Z,6.63
2019-05-11T05:19:04.912Z,4.80
2019-05-11T05:21:31.312Z,4.93
2019-05-11T05:23:57.690Z,5.00
2019-05-11T05:26:24.170Z,4.90
2019-05-11T05:28:50.643Z,4.20
2019-05-11T05:31:17.023Z,4.93
2019-05-11T05:33:43.331Z,4.00
2019-05-11T05:36:09.599Z,4.87
2019-05-11T05:38:36.085Z,4.53
2019-05-11T05:41:02.771Z,5.47
2019-05-11T05:43:29.067Z,4.13
2019-05-11T05:45:55.678Z,4.33
2019-05-11T05:48:22.038Z,4.33
2019-05-11T05:50:48.612Z,4.70
2019-05-11T05:53:15.450Z,4.43
2019-05-11T05:55:41.709Z,5.60
2019-05-11T05:58:08.006Z,5.10
2019-05-11T06:00:34.366Z,6.27
2019-05-11T06:03:00.695Z,5.50
2019-05-11T06:05:27.422Z,6.33
2019-05-11T06:07:53.824Z,5.10
2019-05-11T06:10:20.288Z,4.73
2019-05-11T06:12:47.023Z,5.67
2019-05-11T06:15:13.791Z,6.93
2019-05-11T06:17:40.078Z,5.83
2019-05-11T06:20:07.842Z,4.10
2019-05-11T06:22:35.215Z,7.97
2019-05-11T06:25:01.505Z,5.53
2019-05-11T06:27:27.989Z,4.13
2019-05-11T06:29:54.378Z,4.17
2019-05-11T06:32:20.662Z,3.40
2019-05-11T06:34:47.283Z,3.83
2019-05-11T06:37:13.767Z,4.37
2019-05-11T06:39:40.455Z,3.07
2019-05-11T06:42:06.739Z,3.80
2019-05-11T06:44:33.133Z,3.67
2019-05-11T06:46:59.503Z,4.03
2019-05-11T06:49:25.855Z,3.77
2019-05-11T06:51:52.520Z,3.20
2019-05-11T06:54:18.912Z,3.93
2019-05-11T06:56:45.482Z,4.93
2019-05-11T06:59:11.766Z,2.97
2019-05-11T07:01:38.265Z,3.10
2019-05-11T07:04:04.943Z,4.03
2019-05-11T07:06:31.544Z,3.67
2019-05-11T07:08:57.904Z,2.80
2019-05-11T07:11:24.332Z,4.03
2019-05-11T07:13:50.659Z,5.40
2019-05-11T07:16:16.945Z,2.63
2019-05-11T07:18:43.206Z,3.03
2019-05-11T07:21:09.620Z,3.27
2019-05-11T07:23:35.999Z,4.07
2019-05-11T07:26:02.703Z,2.23
2019-05-11T07:28:29.430Z,1.67
2019-05-11T07:30:56.081Z,1.80
2019-05-11T07:33:22.566Z,2.00
2019-05-11T07:35:48.854Z,3.03
2019-05-11T07:38:15.156Z,1.70
2019-05-11T07:40:42.662Z,3.23
2019-05-11T07:43:09.775Z,1.90
2019-05-11T07:45:38.632Z,1.50
2019-05-11T07:48:04.849Z,2.07
2019-05-11T07:50:31.227Z,1.80
2019-05-11T07:52:58.874Z,2.40
2019-05-11T07:55:28.001Z,2.90
2019-05-11T07:57:53.687Z,1.97
2019-05-11T08:00:20.390Z,1.60
2019-05-11T08:02:48.020Z,2.53
2019-05-11T08:05:14.745Z,2.90
2019-05-11T08:07:41.376Z,3.47
2019-05-11T08:10:09.255Z,1.97
2019-05-11T08:12:38.982Z,1.93
2019-05-11T08:15:12.455Z,1.37
2019-05-11T08:17:34.107Z,2.43
2019-05-11T08:20:00.568Z,1.93
2019-05-11T08:22:28.408Z,1.93
2019-05-11T08:24:55.048Z,2.50
2019-05-11T08:27:21.855Z,2.37
2019-05-11T08:29:48.811Z,2.73
2019-05-11T08:32:15.345Z,1.50
2019-05-11T08:34:41.726Z,4.90
2019-05-11T08:37:08.804Z,1.83
2019-05-11T08:39:37.854Z,1.60
2019-05-11T08:42:04.364Z,2.43
2019-05-11T08:44:31.055Z,2.10
2019-05-11T08:46:58.226Z,2.50
2019-05-11T08:49:24.802Z,2.77
2019-05-11T08:51:51.415Z,3.90
2019-05-11T08:54:18.418Z,2.83
2019-05-11T08:56:44.851Z,3.53
2019-05-11T08:59:11.538Z,1.37
2019-05-11T09:01:39.284Z,1.97
2019-05-11T09:04:08.704Z,2.10
2019-05-11T09:06:34.647Z,1.87
2019-05-11T09:09:01.371Z,3.30
2019-05-11T09:11:29.277Z,3.07
2019-05-11T09:13:57.846Z,2.20
2019-05-11T09:16:24.550Z,1.50
2019-05-11T09:18:50.827Z,1.83
2019-05-11T09:21:19.119Z,1.70
2019-05-11T09:23:45.389Z,1.43
2019-05-11T09:26:11.783Z,1.33
2019-05-11T09:28:38.632Z,2.30
2019-05-11T09:31:05.303Z,2.23
2019-05-11T09:33:31.700Z,1.63
2019-05-11T09:35:58.489Z,1.20
2019-05-11T09:38:24.977Z,1.47
2019-05-11T09:40:51.479Z,1.20
2019-05-11T09:43:18.198Z,1.60
2019-05-11T09:45:48.505Z,1.90
2019-05-11T09:48:12.814Z,3.07
2019-05-11T09:50:39.649Z,1.57
2019-05-11T09:53:08.369Z,1.97
2019-05-11T09:55:34.580Z,1.13
2019-05-11T09:58:01.814Z,1.77
2019-05-11T10:00:30.007Z,3.30
2019-05-11T10:02:57.697Z,1.90
2019-05-11T10:05:24.631Z,1.67
2019-05-11T10:07:51.067Z,1.37
2019-05-11T10:10:18.658Z,1.67
2019-05-11T10:12:45.535Z,1.43
2019-05-11T10:15:12.438Z,1.27
2019-05-11T10:17:38.826Z,1.07
2019-05-11T10:20:08.892Z,2.97
2019-05-11T10:22:34.346Z,3.17
2019-05-11T10:25:01.319Z,1.97
2019-05-11T10:27:28.126Z,1.97
2019-05-11T10:29:54.586Z,1.07
2019-05-11T10:32:20.907Z,2.87
2019-05-11T10:34:48.370Z,3.07
2019-05-11T10:37:14.963Z,0.60
2019-05-11T10:39:41.453Z,0.73
2019-05-11T10:42:08.698Z,2.27
2019-05-11T10:44:35.053Z,2.27
2019-05-11T10:47:01.940Z,1.03
2019-05-11T10:49:29.025Z,0.83
2019-05-11T10:51:55.811Z,0.60
2019-05-11T10:54:22.103Z,1.60
2019-05-11T10:56:48.383Z,1.63
2019-05-11T10:59:15.650Z,1.20
2019-05-11T11:01:43.217Z,1.23
2019-05-11T11:04:09.536Z,1.37
2019-05-11T11:06:35.905Z,0.70
2019-05-11T11:09:05.303Z,2.43
2019-05-11T11:11:31.827Z,1.90
2019-05-11T11:13:58.617Z,2.03
2019-05-11T11:16:36.805Z,2.20
2019-05-11T11:18:53.503Z,1.30
2019-05-11T11:21:22.798Z,1.37
2019-05-11T11:23:48.262Z,1.70
2019-05-11T11:26:18.205Z,1.53
2019-05-11T11:28:44.414Z,1.73
2019-05-11T11:31:10.703Z,1.97
2019-05-11T11:33:38.257Z,2.83
2019-05-11T11:36:08.357Z,2.50
2019-05-11T11:38:34.113Z,2.27
2019-05-11T11:41:00.484Z,3.67
2019-05-11T11:43:28.772Z,1.80
2019-05-11T11:45:54.938Z,2.83
2019-05-11T11:48:21.456Z,3.63
2019-05-11T11:50:48.136Z,2.50
2019-05-11T11:53:14.501Z,2.33
2019-05-11T11:55:41.126Z,3.10
2019-05-11T11:58:08.265Z,2.77
2019-05-11T12:00:35.078Z,1.90
2019-05-11T12:03:01.447Z,3.80
2019-05-11T12:05:28.411Z,2.17
2019-05-11T12:07:54.925Z,3.10
2019-05-11T12:10:21.438Z,3.70
2019-05-11T12:12:47.819Z,2.40
2019-05-11T12:15:14.396Z,3.80
2019-05-11T12:17:40.678Z,3.20
2019-05-11T12:20:09.031Z,3.63
2019-05-11T12:22:35.527Z,3.37
2019-05-11T12:25:02.196Z,4.43
2019-05-11T12:27:28.880Z,3.50
2019-05-11T12:29:55.222Z,4.90
2019-05-11T12:32:29.434Z,4.53
2019-05-11T12:34:58.641Z,3.87
2019-05-11T12:37:24.271Z,4.50
2019-05-11T12:39:50.554Z,5.90
2019-05-11T12:42:17.978Z,4.40
2019-05-11T12:44:44.699Z,4.73
2019-05-11T12:47:21.527Z,4.97
2019-05-11T12:49:39.211Z,4.60
2019-05-11T12:52:07.661Z,5.20
2019-05-11T12:54:34.183Z,5.07
2019-05-11T12:57:00.667Z,5.27
2019-05-11T12:59:27.799Z,6.30
2019-05-11T13:01:54.907Z,5.23
2019-05-11T13:04:21.275Z,5.27
2019-05-11T13:06:47.948Z,6.47
2019-05-11T13:09:14.571Z,5.47
2019-05-11T13:11:41.142Z,6.00
2019-05-11T13:14:08.095Z,5.77
2019-05-11T13:16:34.690Z,5.90
2019-05-11T13:19:01.104Z,6.43
2019-05-11T13:21:28.661Z,7.07
2019-05-11T13:23:55.111Z,7.73
2019-05-11T13:26:21.379Z,6.43
2019-05-11T13:28:48.489Z,8.23
2019-05-11T13:31:15.156Z,9.80
2019-05-11T13:33:41.434Z,8.10
2019-05-11T13:36:09.077Z,8.73
2019-05-11T13:38:35.617Z,9.87
2019-05-11T13:41:02.247Z,8.97
2019-05-11T13:43:28.628Z,7.07
2019-05-11T13:45:55.028Z,8.50
2019-05-11T13:48:21.506Z,9.17
2019-05-11T13:50:48.073Z,8.40
2019-05-11T13:53:14.570Z,9.73
2019-05-11T13:55:41.360Z,10.97
2019-05-11T13:58:08.426Z,10.93
2019-05-11T14:00:35.003Z,8.93
2019-05-11T14:03:03.412Z,10.20
2019-05-11T14:05:29.910Z,9.37
2019-05-11T14:07:58.509Z,9.97
2019-05-11T14:10:24.472Z,9.60
2019-05-11T14:12:50.950Z,10.33
2019-05-11T14:15:18.755Z,9.53
2019-05-11T14:17:45.347Z,10.83
2019-05-11T14:20:12.217Z,9.63
2019-05-11T14:22:38.784Z,10.63
2019-05-11T14:25:07.460Z,11.50
2019-05-11T14:27:34.718Z,10.83
2019-05-11T14:30:04.034Z,10.90
2019-05-11T14:32:29.979Z,9.30
2019-05-11T14:34:57.836Z,10.20
2019-05-11T14:37:24.547Z,11.00
2019-05-11T14:39:50.811Z,9.37
2019-05-11T14:42:21.915Z,9.87
2019-05-11T14:44:45.377Z,10.70
2019-05-11T14:47:11.662Z,11.07
2019-05-11T14:49:39.031Z,10.93
2019-05-11T14:52:05.420Z,11.10
2019-05-11T14:54:31.791Z,10.80
2019-05-11T14:56:58.699Z,9.73
2019-05-11T14:59:25.199Z,11.70
2019-05-11T15:01:51.780Z,9.93
2019-05-11T15:04:18.239Z,9.60
2019-05-11T15:06:45.787Z,8.90
2019-05-11T15:09:12.403Z,9.03
2019-05-11T15:11:39.029Z,8.07
2019-05-11T15:14:07.847Z,9.17
2019-05-11T15:16:33.849Z,8.03
2019-05-11T15:19:00.332Z,7.87
2019-05-11T15:21:28.076Z,8.90
2019-05-11T15:23:54.874Z,7.60
2019-05-11T15:26:21.515Z,7.50
2019-05-11T15:28:48.698Z,7.47
2019-05-11T15:31:19.488Z,9.57
2019-05-11T15:33:44.520Z,7.53
2019-05-11T15:36:10.922Z,8.00
2019-05-11T15:38:37.848Z,7.97
2019-05-11T15:41:04.412Z,5.67
2019-05-11T15:43:31.025Z,6.90
2019-05-11T15:45:57.975Z,7.40
2019-05-11T15:48:24.442Z,7.57
2019-05-11T15:50:50.732Z,5.30
2019-05-11T15:53:17.894Z,6.07
2019-05-11T15:55:45.778Z,5.63
2019-05-11T15:58:12.152Z,7.03
2019-05-11T16:00:40.064Z,7.47
2019-05-11T16:03:08.183Z,6.00
2019-05-11T16:05:35.207Z,6.17
2019-05-11T16:08:01.863Z,6.97
2019-05-11T16:10:28.379Z,5.73
2019-05-11T16:12:54.747Z,6.03
2019-05-11T16:15:21.045Z,6.80
2019-05-11T16:17:48.754Z,6.23
2019-05-11T16:20:18.107Z,6.37
2019-05-11T16:22:44.176Z,4.47
2019-05-11T16:25:11.386Z,6.60
2019-05-11T16:27:38.151Z,8.20
2019-05-11T16:30:07.069Z,4.80
2019-05-11T16:32:33.667Z,5.30
2019-05-11T16:35:00.438Z,5.47
2019-05-11T16:37:28.829Z,5.23
2019-05-11T16:39:55.514Z,6.97
2019-05-11T16:42:21.798Z,4.87
2019-05-11T16:44:48.484Z,5.40
2019-05-11T16:47:15.322Z,6.60
2019-05-11T16:49:41.582Z,4.73
2019-05-11T16:52:10.133Z,4.73
2019-05-11T16:54:38.832Z,5.07
2019-05-11T16:57:05.258Z,4.90
2019-05-11T16:59:31.899Z,4.47
2019-05-11T17:01:58.595Z,6.93
2019-05-11T17:04:28.869Z,4.73
2019-05-11T17:06:54.066Z,2.93
2019-05-11T17:09:20.350Z,4.63
2019-05-11T17:11:48.822Z,5.23
2019-05-11T17:14:15.104Z,4.93
2019-05-11T17:16:41.483Z,5.60
2019-05-11T17:19:08.214Z,5.17
2019-05-11T17:21:35.023Z,3.20
2019-05-11T17:24:01.333Z,4.40
2019-05-11T17:26:27.958Z,5.47
2019-05-11T17:28:54.387Z,5.33
2019-05-11T17:31:21.723Z,3.73
2019-05-11T17:33:48.220Z,3.40
2019-05-11T17:36:14.650Z,4.67
2019-05-11T17:38:40.967Z,4.63
2019-05-11T17:41:08.622Z,6.00
2019-05-11T17:43:35.035Z,4.47
2019-05-11T17:46:01.664Z,3.77
2019-05-11T17:48:28.316Z,4.10
2019-05-11T17:50:54.992Z,3.77
2019-05-11T17:53:21.322Z,7.20
2019-05-11T17:55:48.819Z,5.90
2019-05-11T17:58:18.255Z,6.57
2019-05-11T18:00:43.759Z,4.37
2019-05-11T18:03:11.701Z,3.40
2019-05-11T18:05:38.248Z,6.07
2019-05-11T18:08:04.661Z,6.30
2019-05-11T18:10:31.380Z,4.07
2019-05-11T18:12:57.978Z,4.20
2019-05-11T18:15:24.461Z,3.40
2019-05-11T18:17:50.869Z,5.83
2019-05-11T18:20:20.583Z,4.27
2019-05-11T18:22:45.932Z,3.40
2019-05-11T18:25:14.124Z,3.93
2019-05-11T18:27:40.631Z,3.60
2019-05-11T18:30:09.039Z,4.73
2019-05-11T18:32:35.823Z,3.80
2019-05-11T18:35:08.426Z,3.47
2019-05-11T18:37:34.765Z,3.73
2019-05-11T18:40:01.788Z,4.07
2019-05-11T18:42:28.832Z,4.83
2019-05-11T18:44:57.989Z,6.33
2019-05-11T18:47:23.581Z,6.43
2019-05-11T18:49:50.183Z,10.77
2019-05-11T18:52:18.691Z,26.20
2019-05-11T18:54:44.791Z,19.60
2019-05-11T18:57:11.218Z,11.03
2019-05-11T18:59:37.935Z,7.63
2019-05-11T19:02:04.806Z,7.17
2019-05-11T19:04:31.435Z,5.93
2019-05-11T19:06:57.999Z,5.83
2019-05-11T19:09:24.718Z,6.07
2019-05-11T19:11:51.010Z,5.40
2019-05-11T19:14:17.703Z,5.67
2019-05-11T19:16:44.179Z,5.97
2019-05-11T19:19:11.014Z,4.67
2019-05-11T19:21:37.934Z,4.77
2019-05-11T19:24:06.158Z,6.03
2019-05-11T19:26:33.259Z,6.53
2019-05-11T19:29:00.807Z,5.23
2019-05-11T19:31:28.094Z,6.73
2019-05-11T19:33:54.955Z,6.37
2019-05-11T19:36:21.240Z,10.33
2019-05-11T19:38:47.940Z,8.17
2019-05-11T19:41:14.735Z,9.27
2019-05-11T19:43:41.354Z,7.50
2019-05-11T19:46:08.816Z,9.60
2019-05-11T19:48:35.799Z,8.80
2019-05-11T19:51:07.765Z,8.20
2019-05-11T19:53:30.568Z,6.17
2019-05-11T19:55:58.420Z,6.03
2019-05-11T19:58:25.053Z,6.77
2019-05-11T20:00:51.582Z,8.47
2019-05-11T20:03:18.363Z,5.63
2019-05-11T20:05:44.919Z,6.90
2019-05-11T20:08:11.610Z,5.80
2019-05-11T20:10:38.455Z,8.13
2019-05-11T20:13:07.778Z,8.07
2019-05-11T20:15:33.523Z,7.63
2019-05-11T20:17:59.914Z,10.00
2019-05-11T20:20:28.441Z,10.00
2019-05-11T20:22:54.668Z,6.93
2019-05-11T20:25:21.038Z,7.77
2019-05-11T20:27:48.506Z,11.53
2019-05-11T20:30:17.970Z,12.00
2019-05-11T20:32:43.715Z,8.23
2019-05-11T20:35:10.086Z,10.57
2019-05-11T20:37:38.305Z,9.23
2019-05-11T20:40:05.526Z,9.33
2019-05-11T20:42:33.423Z,7.27
2019-05-11T20:45:19.683Z,7.60
2019-05-11T20:47:48.455Z,8.27
2019-05-11T20:50:14.673Z,8.53
2019-05-11T20:52:42.916Z,8.70
2019-05-11T20:55:09.519Z,8.33
2019-05-11T20:57:58.252Z,11.60
2019-05-11T21:00:27.974Z,12.33
2019-05-11T21:02:54.510Z,13.27
2019-05-11T21:05:20.940Z,12.03
2019-05-11T21:07:47.370Z,14.17
2019-05-11T21:10:14.358Z,13.40
2019-05-11T21:12:41.061Z,14.80
2019-05-11T21:15:08.214Z,18.27
2019-05-11T21:17:34.625Z,11.17
2019-05-11T21:20:01.423Z,12.67
2019-05-11T21:22:27.938Z,9.90
2019-05-11T21:24:54.319Z,14.10
2019-05-11T21:27:20.835Z,13.20
2019-05-11T21:29:49.088Z,16.63
2019-05-11T21:32:17.931Z,16.87
2019-05-11T21:34:44.181Z,19.13
2019-05-11T21:37:10.807Z,17.57
2019-05-11T21:39:37.916Z,17.27
2019-05-11T21:42:04.335Z,12.57
2019-05-11T21:44:31.024Z,13.50
2019-05-11T21:46:57.673Z,10.77
2019-05-11T21:49:24.063Z,9.63
2019-05-11T21:52:03.680Z,10.27
2019-05-11T21:54:18.837Z,16.57
2019-05-11T21:56:45.478Z,13.40
2019-05-11T21:59:11.966Z,12.57
2019-05-11T22:01:38.839Z,10.27
2019-05-11T22:04:05.341Z,8.40
2019-05-11T22:06:31.617Z,10.20
2019-05-11T22:08:59.231Z,11.20
2019-05-11T22:11:28.438Z,10.67
2019-05-11T22:13:57.759Z,16.87
2019-05-11T22:16:23.675Z,13.13
2019-05-11T22:18:50.217Z,14.10
2019-05-11T22:21:18.765Z,12.83
2019-05-11T22:23:47.448Z,11.77
2019-05-11T22:26:14.663Z,13.03
2019-05-11T22:28:41.095Z,9.63
2019-05-11T22:31:07.900Z,13.60
2019-05-11T22:33:34.646Z,11.63
2019-05-11T22:36:01.371Z,10.73
2019-05-11T22:38:30.191Z,8.70
2019-05-11T22:40:58.245Z,11.13
2019-05-11T22:43:24.650Z,9.10
2019-05-11T22:45:50.951Z,7.23
2019-05-11T22:48:17.227Z,8.77
2019-05-11T22:50:44.083Z,7.00
2019-05-11T22:53:11.600Z,7.43
2019-05-11T22:55:38.348Z,6.50
2019-05-11T22:58:05.326Z,6.43
2019-05-11T23:00:41.177Z,4.97
2019-05-11T23:03:07.701Z,6.43
2019-05-11T23:05:35.718Z,6.10
2019-05-11T23:08:03.397Z,8.27
2019-05-11T23:10:29.688Z,5.43
2019-05-11T23:12:55.975Z,6.73
2019-05-11T23:15:22.355Z,6.37
2019-05-11T23:17:48.651Z,5.93
2019-05-11T23:20:15.221Z,6.30
2019-05-11T23:22:57.062Z,6.63
2019-05-11T23:25:18.417Z,7.87
2019-05-11T23:27:48.238Z,12.97
2019-05-11T23:30:14.751Z,18.53
2019-05-11T23:32:41.146Z,8.83
2019-05-11T23:35:08.534Z,9.57
2019-05-11T23:37:35.129Z,25.63
2019-05-11T23:40:02.525Z,5.87
2019-05-11T23:42:31.023Z,9.83
2019-05-11T23:44:58.686Z,9.60
2019-05-11T23:47:25.054Z,4.30
2019-05-11T23:49:51.333Z,4.47
2019-05-11T23:52:18.070Z,6.50
2019-05-11T23:54:44.491Z,5.60
2019-05-11T23:57:10.778Z,4.80
2019-05-11T23:59:37.394Z,12.40
